createdAt,value
2022-10-26T00:01:16.753Z,99951.53
2022-10-26T00:03:45.909Z,99950.66
2022-10-26T00:06:21.628Z,99948.88
2022-10-26T00:08:48.925Z,99938.41
2022-10-26T00:11:16.281Z,99932.13
2022-10-26T00:13:43.918Z,99919.94
2022-10-26T00:16:23.502Z,99929.91
2022-10-26T00:18:51.199Z,99931.84
2022-10-26T00:21:18.173Z,99937.13
2022-10-26T00:23:45.182Z,99930.88
2022-10-26T00:26:12.489Z,99926.53
2022-10-26T00:28:39.310Z,99918.50
2022-10-26T00:31:09.447Z,99915.94
2022-10-26T00:33:36.487Z,99918.72
2022-10-26T00:36:03.471Z,99916.16
2022-10-26T00:38:30.669Z,99919.56
2022-10-26T00:43:44.241Z,99903.03
2022-10-26T00:46:20.355Z,99899.53
2022-10-26T00:48:51.445Z,99901.56
2022-10-26T00:51:23.341Z,99886.50
2022-10-26T00:53:51.655Z,99887.34
2022-10-26T00:56:19.087Z,99880.13
2022-10-26T00:58:46.744Z,99869.75
2022-10-26T01:01:13.653Z,99876.75
2022-10-26T01:03:40.815Z,99863.63
2022-10-26T01:06:08.669Z,99860.84
2022-10-26T01:08:35.573Z,99841.56
2022-10-26T01:11:03.609Z,99834.56
2022-10-26T01:13:34.348Z,99834.56
2022-10-26T01:16:04.227Z,99820.47
2022-10-26T01:19:06.311Z,99823.25
2022-10-26T01:21:50.050Z,99808.28
2022-10-26T01:24:30.033Z,99801.31
2022-10-26T01:27:34.523Z,99801.31
2022-10-26T01:30:01.284Z,99790.09
2022-10-26T01:32:36.006Z,99785.75
2022-10-26T01:35:10.636Z,99787.44
2022-10-26T01:37:43.191Z,99783.09
2022-10-26T01:40:20.097Z,99776.13
2022-10-26T01:42:51.417Z,99771.66
2022-10-26T01:45:19.151Z,99767.31
2022-10-26T01:47:48.275Z,99764.81
2022-10-26T01:50:16.567Z,99762.97
2022-10-26T01:52:43.392Z,99748.16
2022-10-26T01:55:42.028Z,99751.78
2022-10-26T01:58:36.824Z,99743.69
2022-10-26T02:01:34.566Z,99723.44
2022-10-26T02:04:15.935Z,99717.44
2022-10-26T02:07:02.769Z,99706.84
2022-10-26T02:09:38.301Z,99700.81
2022-10-26T02:12:15.881Z,99684.91
2022-10-26T02:14:51.281Z,99681.31
2022-10-26T02:17:35.720Z,99682.28
2022-10-26T02:20:09.332Z,99666.59
2022-10-26T02:22:45.780Z,99668.31
2022-10-26T02:25:19.307Z,99662.25
2022-10-26T02:27:52.899Z,99666.59
2022-10-26T02:30:20.431Z,99651.66
2022-10-26T02:32:52.210Z,99644.78
2022-10-26T02:35:23.764Z,99630.59
2022-10-26T02:37:54.017Z,99628.09
2022-10-26T02:40:25.211Z,99634.31
2022-10-26T02:42:53.284Z,99620.22
2022-10-26T02:45:26.290Z,99620.13
2022-10-26T02:47:54.797Z,99611.34
2022-10-26T02:50:28.255Z,99611.34
2022-10-26T02:53:15.908Z,99605.41
2022-10-26T02:55:48.596Z,99607.13
2022-10-26T02:58:29.714Z,99602.78
2022-10-26T03:00:58.230Z,99593.88
2022-10-26T03:03:25.403Z,99585.94
2022-10-26T03:05:52.238Z,99577.25
2022-10-26T03:08:19.238Z,99568.34
2022-10-26T03:10:49.041Z,99558.59
2022-10-26T03:13:15.915Z,99556.06
2022-10-26T03:15:42.730Z,99545.47
2022-10-26T03:18:09.689Z,99534.97
2022-10-26T03:20:36.524Z,99528.84
2022-10-26T03:23:03.389Z,99527.03
2022-10-26T03:25:30.240Z,99529.81
2022-10-26T03:27:58.955Z,99528.97
2022-10-26T03:30:26.428Z,99529.81
2022-10-26T03:32:54.018Z,99520.31
2022-10-26T03:35:21.169Z,99515.13
2022-10-26T03:37:48.567Z,99513.31
2022-10-26T03:40:16.117Z,99510.81
2022-10-26T03:42:42.962Z,99508.16
2022-10-26T03:45:10.538Z,99508.16
2022-10-26T03:47:48.089Z,99500.22
2022-10-26T03:50:17.708Z,99479.97
2022-10-26T03:52:44.711Z,99484.31
2022-10-26T03:55:11.541Z,99493.22
2022-10-26T03:57:42.882Z,99476.47
2022-10-26T04:00:15.647Z,99468.66
2022-10-26T04:02:43.714Z,99460.72
2022-10-26T04:05:10.619Z,99473.97
2022-10-26T04:07:37.448Z,99459.16
2022-10-26T04:10:05.528Z,99448.44
2022-10-26T04:12:32.305Z,99450.13
2022-10-26T04:14:59.155Z,99435.19
2022-10-26T04:17:25.977Z,99430.03
2022-10-26T04:19:52.782Z,99428.19
2022-10-26T04:22:19.637Z,99420.25
2022-10-26T04:24:46.456Z,99424.72
2022-10-26T04:27:13.266Z,99426.53
2022-10-26T04:29:40.075Z,99422.19
2022-10-26T04:32:07.599Z,99417.88
2022-10-26T04:34:34.388Z,99417.88
2022-10-26T04:37:01.210Z,99414.25
2022-10-26T04:39:28.006Z,99421.34
2022-10-26T04:41:55.133Z,99418.69
2022-10-26T04:44:21.970Z,99416.66
2022-10-26T04:46:48.846Z,99408.69
2022-10-26T04:49:15.862Z,99406.06
2022-10-26T04:51:42.743Z,99404.34
2022-10-26T04:54:09.674Z,99400.88
2022-10-26T04:56:36.582Z,99397.41
2022-10-26T04:59:03.612Z,99388.59
2022-10-26T05:01:31.997Z,99391.13
2022-10-26T05:03:58.908Z,99378.00
2022-10-26T05:06:25.771Z,99371.63
2022-10-26T05:08:52.590Z,99374.28
2022-10-26T05:11:19.422Z,99371.63
2022-10-26T05:13:48.394Z,99373.41
2022-10-26T05:16:16.607Z,99365.22
2022-10-26T05:18:43.429Z,99365.13
2022-10-26T05:21:10.262Z,99355.00
2022-10-26T05:23:37.090Z,99338.84
2022-10-26T05:26:04.915Z,99353.50
2022-10-26T05:28:31.715Z,99355.91
2022-10-26T05:30:58.893Z,99355.53
2022-10-26T05:33:25.809Z,99350.22
2022-10-26T05:35:55.823Z,99351.66
2022-10-26T05:38:22.664Z,99350.69
2022-10-26T05:40:54.591Z,99347.06
2022-10-26T05:43:23.377Z,99337.31
2022-10-26T05:45:51.192Z,99330.22
2022-10-26T05:48:18.175Z,99330.22
2022-10-26T05:50:45.492Z,99322.28
2022-10-26T05:53:12.632Z,99322.28
2022-10-26T05:55:39.967Z,99318.63
2022-10-26T05:58:11.695Z,99319.50
2022-10-26T06:00:52.223Z,99312.25
2022-10-26T06:03:22.145Z,99304.28
2022-10-26T06:05:58.051Z,99306.94
2022-10-26T06:08:27.359Z,99314.78
2022-10-26T06:10:56.152Z,99310.28
2022-10-26T06:13:23.254Z,99303.19
2022-10-26T06:15:55.744Z,99296.94
2022-10-26T06:18:39.993Z,99300.19
2022-10-26T06:21:27.793Z,99303.53
2022-10-26T06:24:18.892Z,99297.38
2022-10-26T06:27:06.191Z,99302.53
2022-10-26T06:29:57.321Z,99297.97
2022-10-26T06:32:27.476Z,99286.38
2022-10-26T06:35:22.235Z,99293.63
2022-10-26T06:37:50.697Z,99285.09
2022-10-26T06:40:18.317Z,99283.53
2022-10-26T06:42:45.591Z,99284.53
2022-10-26T06:48:09.030Z,99279.09
2022-10-26T06:50:43.288Z,99284.53
2022-10-26T06:53:16.174Z,99292.47
2022-10-26T06:55:45.509Z,99297.03
2022-10-26T06:58:17.880Z,99294.41
2022-10-26T07:00:47.441Z,99298.03
2022-10-26T07:03:14.548Z,99299.97
2022-10-26T07:05:42.062Z,99298.28
2022-10-26T07:08:08.975Z,99290.47
2022-10-26T07:10:39.080Z,99289.63
2022-10-26T07:13:10.384Z,99288.78
2022-10-26T07:15:38.526Z,99280.00
2022-10-26T07:18:07.143Z,99270.34
2022-10-26T07:20:41.667Z,99280.94
2022-10-26T07:23:16.296Z,99281.09
2022-10-26T07:25:43.232Z,99278.44
2022-10-26T07:28:11.008Z,99275.78
2022-10-26T07:30:39.729Z,99275.94
2022-10-26T07:33:11.817Z,99273.28
2022-10-26T07:35:39.135Z,99282.19
2022-10-26T07:38:06.718Z,99279.53
2022-10-26T07:40:34.084Z,99279.53
2022-10-26T07:43:01.320Z,99273.53
2022-10-26T07:45:29.649Z,99272.53
2022-10-26T07:47:57.281Z,99268.09
2022-10-26T07:50:25.059Z,99265.34
2022-10-26T07:52:52.334Z,99253.03
2022-10-26T07:55:20.408Z,99253.03
2022-10-26T07:57:49.722Z,99240.75
2022-10-26T08:00:22.091Z,99253.91
2022-10-26T08:02:49.190Z,99257.38
2022-10-26T08:05:16.101Z,99258.94
2022-10-26T08:07:44.639Z,99243.84
2022-10-26T08:10:12.592Z,99246.50
2022-10-26T08:12:40.049Z,99251.00
2022-10-26T08:15:07.770Z,99251.81
2022-10-26T08:17:34.961Z,99239.53
2022-10-26T08:20:01.836Z,99242.31
2022-10-26T08:22:31.780Z,99232.81
2022-10-26T08:24:58.706Z,99236.44
2022-10-26T08:27:25.958Z,99225.13
2022-10-26T08:29:52.859Z,99229.59
2022-10-26T08:32:19.807Z,99220.81
2022-10-26T08:34:46.686Z,99239.09
2022-10-26T08:37:13.723Z,99256.09
2022-10-26T08:39:40.585Z,99264.16
2022-10-26T08:42:28.140Z,99265.84
2022-10-26T08:45:01.862Z,99275.59
2022-10-26T08:47:39.616Z,99310.16
2022-10-26T08:50:13.128Z,99339.31
2022-10-26T08:53:03.999Z,99326.06
2022-10-26T08:58:38.167Z,99328.97
2022-10-26T09:01:05.763Z,99315.72
2022-10-26T09:03:33.789Z,99318.47
2022-10-26T09:06:15.942Z,99326.56
2022-10-26T09:08:51.270Z,99337.16
2022-10-26T09:11:40.162Z,99340.75
2022-10-26T09:14:34.139Z,99335.47
2022-10-26T09:17:33.696Z,99350.66
2022-10-26T09:20:18.486Z,99330.41
2022-10-26T09:22:56.140Z,99322.34
2022-10-26T09:25:26.488Z,99332.09
2022-10-26T09:28:00.022Z,99335.59
2022-10-26T09:30:27.544Z,99325.97
2022-10-26T09:33:00.619Z,99321.75
2022-10-26T09:35:34.125Z,99312.84
2022-10-26T09:38:28.997Z,99307.56
2022-10-26T09:41:14.056Z,99290.69
2022-10-26T09:44:04.409Z,99298.91
2022-10-26T09:46:40.919Z,99298.91
2022-10-26T09:49:11.912Z,99292.88
2022-10-26T09:51:40.303Z,99293.88
2022-10-26T09:54:16.430Z,99298.31
2022-10-26T09:56:50.413Z,99302.75
2022-10-26T09:59:20.666Z,99314.31
2022-10-26T10:01:47.672Z,99330.19
2022-10-26T10:04:14.697Z,99325.88
2022-10-26T10:06:41.715Z,99335.50
2022-10-26T10:09:25.054Z,99340.09
2022-10-26T10:11:56.775Z,99356.81
2022-10-26T10:14:28.992Z,99355.97
2022-10-26T10:17:00.218Z,99361.28
2022-10-26T10:19:32.991Z,99366.56
2022-10-26T10:22:09.483Z,99360.31
2022-10-26T10:24:41.600Z,99362.81
2022-10-26T10:27:17.008Z,99369.69
2022-10-26T10:29:45.569Z,99360.53
2022-10-26T10:32:21.021Z,99370.88
2022-10-26T10:34:49.094Z,99373.41
2022-10-26T10:37:47.223Z,99370.63
2022-10-26T10:40:40.346Z,99364.34
2022-10-26T10:43:16.137Z,99373.16
2022-10-26T10:45:48.813Z,99380.16
2022-10-26T10:48:21.857Z,99388.91
2022-10-26T10:51:12.885Z,99390.75
2022-10-26T10:53:49.538Z,99388.09
2022-10-26T10:56:37.980Z,99381.22
2022-10-26T10:59:26.464Z,99374.50
2022-10-26T11:02:12.118Z,99382.91
2022-10-26T11:04:57.407Z,99378.59
2022-10-26T11:07:27.111Z,99386.53
2022-10-26T11:09:55.823Z,99384.84
2022-10-26T11:12:29.332Z,99395.44
2022-10-26T11:15:02.516Z,99381.47
2022-10-26T11:17:57.837Z,99383.13
2022-10-26T11:20:27.354Z,99391.09
2022-10-26T11:22:58.878Z,99381.47
2022-10-26T11:25:29.949Z,99388.44
2022-10-26T11:28:06.132Z,99372.53
2022-10-26T11:30:36.809Z,99379.53
2022-10-26T11:33:12.681Z,99376.91
2022-10-26T11:36:04.908Z,99369.91
2022-10-26T11:38:56.851Z,99379.53
2022-10-26T11:41:36.511Z,99380.38
2022-10-26T11:44:17.430Z,99377.50
2022-10-26T11:46:55.852Z,99378.31
2022-10-26T11:49:38.699Z,99391.56
2022-10-26T11:52:26.544Z,99380.97
2022-10-26T11:55:02.507Z,99389.88
2022-10-26T11:57:31.317Z,99384.59
2022-10-26T12:00:10.230Z,99378.44
2022-10-26T12:05:16.589Z,99399.50
2022-10-26T12:07:58.061Z,99394.19
2022-10-26T12:10:35.654Z,99399.50
2022-10-26T12:13:24.167Z,99398.31
2022-10-26T12:16:04.422Z,99384.34
2022-10-26T12:18:54.971Z,99383.25
2022-10-26T12:21:27.677Z,99376.00
2022-10-26T12:23:56.111Z,99370.56
2022-10-26T12:26:29.070Z,99381.91
2022-10-26T12:29:02.175Z,99378.28
2022-10-26T12:31:38.175Z,99383.56
2022-10-26T12:34:11.692Z,99385.28
2022-10-26T12:36:51.178Z,99385.13
2022-10-26T12:39:30.721Z,99399.22
2022-10-26T12:42:05.187Z,99397.28
2022-10-26T12:44:33.369Z,99391.16
2022-10-26T12:47:00.335Z,99385.72
2022-10-26T12:50:01.370Z,99392.59
2022-10-26T12:52:45.024Z,99391.50
2022-10-26T12:55:31.112Z,99403.91
2022-10-26T12:58:03.971Z,99405.59
2022-10-26T13:03:36.364Z,99420.63
2022-10-26T13:06:29.318Z,99421.34
2022-10-26T13:08:58.892Z,99418.84
2022-10-26T13:11:35.216Z,99409.78
2022-10-26T13:14:07.805Z,99416.03
2022-10-26T13:16:35.326Z,99408.84
2022-10-26T13:19:02.377Z,99411.50
2022-10-26T13:21:29.291Z,99419.44
2022-10-26T13:23:57.226Z,99411.34
2022-10-26T13:26:29.929Z,99419.16
2022-10-26T13:28:57.486Z,99444.00
2022-10-26T13:31:24.399Z,99435.81
2022-10-26T13:33:54.827Z,99441.22
2022-10-26T13:36:37.211Z,99429.66
2022-10-26T13:39:13.387Z,99444.56
2022-10-26T13:41:44.210Z,99442.91
2022-10-26T13:44:45.019Z,99451.56
2022-10-26T13:47:22.683Z,99459.50
2022-10-26T13:49:53.243Z,99433.97
2022-10-26T13:52:28.753Z,99457.72
2022-10-26T13:55:01.872Z,99458.56
2022-10-26T13:57:43.420Z,99458.56
2022-10-26T14:00:16.406Z,99478.91
2022-10-26T14:02:46.279Z,99473.63
2022-10-26T14:05:17.215Z,99478.91
2022-10-26T14:07:57.082Z,99488.53
2022-10-26T14:10:43.828Z,99502.78
2022-10-26T14:13:15.751Z,99497.47
2022-10-26T14:15:46.953Z,99512.38
2022-10-26T14:18:19.484Z,99502.06
2022-10-26T14:21:07.713Z,99505.41
2022-10-26T14:23:37.905Z,99511.81
2022-10-26T14:26:05.295Z,99520.34
2022-10-26T14:28:40.368Z,99516.88
2022-10-26T14:31:20.886Z,99516.97
2022-10-26T14:33:48.050Z,99533.03
2022-10-26T14:36:16.569Z,99515.19
2022-10-26T14:38:47.991Z,99541.69
2022-10-26T14:41:17.808Z,99547.84
2022-10-26T14:43:46.088Z,99532.88
2022-10-26T14:46:18.293Z,99536.25
2022-10-26T14:49:00.516Z,99554.81
2022-10-26T14:51:30.007Z,99545.91
2022-10-26T14:53:59.873Z,99540.59
2022-10-26T14:56:40.619Z,99549.50
2022-10-26T14:59:25.258Z,99555.66
2022-10-26T15:02:00.193Z,99567.09
2022-10-26T15:04:31.879Z,99554.69
2022-10-26T15:07:22.675Z,99569.88
2022-10-26T15:09:54.040Z,99560.94
2022-10-26T15:12:20.987Z,99569.03
2022-10-26T15:14:49.232Z,99561.94
2022-10-26T15:17:43.452Z,99572.63
2022-10-26T15:20:30.030Z,99570.84
2022-10-26T15:23:06.106Z,99579.75
2022-10-26T15:25:34.500Z,99582.41
2022-10-26T15:28:30.930Z,99587.69
2022-10-26T15:31:13.083Z,99577.09
2022-10-26T15:33:44.460Z,99583.25
2022-10-26T15:36:13.319Z,99586.88
2022-10-26T15:38:41.479Z,99586.88
2022-10-26T15:41:25.915Z,99581.56
2022-10-26T15:43:56.954Z,99594.84
2022-10-26T15:46:34.895Z,99596.63
2022-10-26T15:49:07.421Z,99612.16
2022-10-26T15:51:35.765Z,99598.91
2022-10-26T15:54:05.152Z,99597.00
2022-10-26T15:56:32.554Z,99599.41
2022-10-26T15:59:00.706Z,99608.09
2022-10-26T16:01:29.709Z,99615.06
2022-10-26T16:03:56.838Z,99610.72
2022-10-26T16:06:28.192Z,99614.94
2022-10-26T16:08:58.562Z,99623.84
2022-10-26T16:11:25.446Z,99616.03
2022-10-26T16:13:52.436Z,99626.63
2022-10-26T16:16:20.770Z,99616.97
2022-10-26T16:18:58.035Z,99614.34
2022-10-26T16:21:33.465Z,99618.78
2022-10-26T16:24:00.715Z,99616.13
2022-10-26T16:26:27.735Z,99603.63
2022-10-26T16:28:54.885Z,99605.44
2022-10-26T16:31:22.233Z,99605.44
2022-10-26T16:33:49.504Z,99612.41
2022-10-26T16:36:16.729Z,99618.69
2022-10-26T16:38:44.048Z,99607.38
2022-10-26T16:41:12.483Z,99620.72
2022-10-26T16:43:44.602Z,99607.59
2022-10-26T16:46:20.091Z,99606.75
2022-10-26T16:48:48.548Z,99620.00
2022-10-26T16:51:22.629Z,99621.09
2022-10-26T16:53:52.995Z,99626.16
2022-10-26T16:56:22.846Z,99631.22
2022-10-26T16:58:50.379Z,99633.63
2022-10-26T17:01:19.760Z,99637.22
2022-10-26T17:03:48.805Z,99644.31
2022-10-26T17:06:16.679Z,99661.06
2022-10-26T17:08:44.229Z,99661.22
2022-10-26T17:11:14.525Z,99670.94
2022-10-26T17:13:42.183Z,99677.91
2022-10-26T17:16:18.300Z,99674.56
2022-10-26T17:18:47.463Z,99674.31
2022-10-26T17:21:17.061Z,99676.13
2022-10-26T17:23:43.979Z,99676.03
2022-10-26T17:26:13.383Z,99689.00
2022-10-26T17:28:40.477Z,99702.16
2022-10-26T17:31:12.627Z,99699.38
2022-10-26T17:33:43.271Z,99720.34
2022-10-26T17:36:12.911Z,99710.59
2022-10-26T17:38:42.457Z,99713.63
2022-10-26T17:41:17.520Z,99708.69
2022-10-26T17:43:46.176Z,99714.34
2022-10-26T17:46:18.784Z,99721.81
2022-10-26T17:48:47.464Z,99713.50
2022-10-26T17:51:18.000Z,99723.63
2022-10-26T17:53:52.606Z,99721.59
2022-10-26T17:56:27.534Z,99711.44
2022-10-26T17:58:59.992Z,99716.19
2022-10-26T18:01:28.541Z,99726.44
2022-10-26T18:03:56.216Z,99727.75
2022-10-26T18:06:24.522Z,99733.78
2022-10-26T18:08:51.747Z,99741.13
2022-10-26T18:11:26.199Z,99738.34
2022-10-26T18:13:56.083Z,99740.50
2022-10-26T18:16:28.681Z,99735.56
2022-10-26T18:19:00.976Z,99745.81
2022-10-26T18:21:30.911Z,99742.66
2022-10-26T18:23:59.139Z,99749.53
2022-10-26T18:26:36.362Z,99763.03
2022-10-26T18:29:04.926Z,99770.00
2022-10-26T18:31:35.330Z,99781.84
2022-10-26T18:34:07.802Z,99784.38
2022-10-26T18:39:24.670Z,99794.25
2022-10-26T18:41:51.879Z,99801.84
2022-10-26T18:44:19.981Z,99811.97
2022-10-26T18:46:52.518Z,99818.72
2022-10-26T18:49:22.552Z,99832.47
2022-10-26T18:51:51.715Z,99839.00
2022-10-26T18:54:21.963Z,99834.41
2022-10-26T18:56:49.552Z,99849.25
2022-10-26T18:59:17.126Z,99847.31
2022-10-26T19:01:47.162Z,99855.41
2022-10-26T19:04:15.573Z,99855.03
2022-10-26T19:06:48.426Z,99847.91
2022-10-26T19:09:18.002Z,99859.25
2022-10-26T19:11:46.296Z,99864.56
2022-10-26T19:14:15.589Z,99866.50
2022-10-26T19:16:46.445Z,99885.34
2022-10-26T19:19:17.079Z,99884.34
2022-10-26T19:21:45.609Z,99899.09
2022-10-26T19:24:15.885Z,99913.56
2022-10-26T19:26:44.640Z,99921.31
2022-10-26T19:29:17.510Z,99924.81
2022-10-26T19:31:50.664Z,99927.47
2022-10-26T19:34:19.032Z,99930.00
2022-10-26T19:36:47.532Z,99934.09
2022-10-26T19:39:21.061Z,99941.69
2022-10-26T19:41:52.041Z,99941.00
2022-10-26T19:44:24.489Z,99941.13
2022-10-26T19:46:52.453Z,99938.56
2022-10-26T19:49:21.611Z,99936.41
2022-10-26T19:51:51.089Z,99944.66
2022-10-26T19:54:19.973Z,99951.78
2022-10-26T19:56:49.324Z,99952.00
2022-10-26T19:59:16.793Z,99956.38
2022-10-26T20:01:44.375Z,99943.34
2022-10-26T20:04:12.663Z,99951.53
2022-10-26T20:06:40.074Z,99958.81
2022-10-26T20:09:07.704Z,99960.22
2022-10-26T20:11:37.201Z,99957.34
2022-10-26T20:14:08.029Z,99968.34
2022-10-26T20:16:35.460Z,99971.84
2022-10-26T20:19:02.880Z,99966.97
2022-10-26T20:21:31.299Z,99957.22
2022-10-26T20:24:00.280Z,99967.22
2022-10-26T20:26:28.658Z,99983.03
2022-10-26T20:28:57.284Z,99987.38
2022-10-26T20:31:24.615Z,99996.06
2022-10-26T20:33:53.416Z,100007.53
2022-10-26T20:36:23.279Z,100006.84
2022-10-26T20:38:51.062Z,100011.44
2022-10-26T20:41:20.556Z,100005.25
2022-10-26T20:43:55.681Z,100008.88
2022-10-26T20:46:27.026Z,100004.66
2022-10-26T20:48:55.444Z,100007.31
2022-10-26T20:51:56.778Z,100030.34
2022-10-26T20:54:53.157Z,100036.66
2022-10-26T20:57:29.194Z,100042.06
2022-10-26T21:00:09.283Z,100038.47
2022-10-26T21:02:36.424Z,100038.47
2022-10-26T21:05:04.085Z,100049.31
2022-10-26T21:07:31.129Z,100047.63
2022-10-26T21:09:58.337Z,100054.00
2022-10-26T21:12:25.542Z,100067.66
2022-10-26T21:14:52.736Z,100066.22
2022-10-26T21:17:19.893Z,100067.28
2022-10-26T21:19:49.057Z,100066.28
2022-10-26T21:22:16.468Z,100062.06
2022-10-26T21:24:44.537Z,100048.19
2022-10-26T21:27:11.892Z,100048.28
2022-10-26T21:29:39.007Z,100040.56
2022-10-26T21:32:06.616Z,100063.00
2022-10-26T21:34:34.134Z,100059.63
2022-10-26T21:37:02.715Z,100072.38
2022-10-26T21:39:30.863Z,100070.69
2022-10-26T21:41:58.172Z,100063.19
2022-10-26T21:44:40.436Z,100058.81
2022-10-26T21:47:09.116Z,100071.38
2022-10-26T21:49:36.720Z,100060.03
2022-10-26T21:52:03.777Z,100078.81
2022-10-26T21:54:31.007Z,100075.69
2022-10-26T21:56:57.966Z,100065.06
2022-10-26T21:59:25.109Z,100074.94
2022-10-26T22:01:52.454Z,100080.34
2022-10-26T22:04:19.600Z,100070.59
2022-10-26T22:06:46.761Z,100065.50
2022-10-26T22:09:13.810Z,100081.66
2022-10-26T22:11:40.862Z,100079.25
2022-10-26T22:14:07.725Z,100090.81
2022-10-26T22:16:34.851Z,100091.88
2022-10-26T22:19:07.014Z,100085.81
2022-10-26T22:21:39.629Z,100080.72
2022-10-26T22:24:07.744Z,100075.53
2022-10-26T22:26:36.728Z,100075.53
2022-10-26T22:29:04.811Z,100068.63
2022-10-26T22:31:34.975Z,100082.97
2022-10-26T22:34:07.553Z,100077.88
2022-10-26T22:36:35.798Z,100075.22
2022-10-26T22:39:02.928Z,100083.44
2022-10-26T22:41:29.861Z,100067.75
2022-10-26T22:43:56.794Z,100085.56
2022-10-26T22:46:26.021Z,100079.31
2022-10-26T22:49:03.127Z,100076.03
2022-10-26T22:51:32.288Z,100100.72
2022-10-26T22:54:01.875Z,100111.69
2022-10-26T22:56:30.319Z,100101.28
2022-10-26T22:58:57.828Z,100095.34
2022-10-26T23:01:28.033Z,100110.19
2022-10-26T23:03:58.308Z,100115.63
2022-10-26T23:06:27.747Z,100123.69
2022-10-26T23:08:54.959Z,100114.88
2022-10-26T23:11:23.546Z,100115.97
2022-10-26T23:13:54.822Z,100137.16
2022-10-26T23:16:22.049Z,100131.34
2022-10-26T23:18:49.257Z,100139.50
2022-10-26T23:21:17.157Z,100153.50
2022-10-26T23:23:44.113Z,100155.50
2022-10-26T23:26:14.144Z,100163.44
2022-10-26T23:28:42.282Z,100168.03
2022-10-26T23:31:16.845Z,100168.16
2022-10-26T23:33:44.092Z,100175.44
2022-10-26T23:36:11.126Z,100201.00
2022-10-26T23:38:37.935Z,100201.84
2022-10-26T23:41:07.101Z,100216.91
2022-10-26T23:43:36.463Z,100223.16
2022-10-26T23:46:03.844Z,100218.81
2022-10-26T23:48:30.735Z,100211.81
2022-10-26T23:50:57.915Z,100222.44
2022-10-26T23:53:25.907Z,100232.25
2022-10-26T23:55:53.330Z,100240.00
2022-10-26T23:58:20.690Z,100244.47
